Weeki Wachee, Florida
Current Conditions -  °F | °C
As of 1:53 AM on Monday 24 Nov 2014 (Local Time) from KBKV Reporting Station
Overcast Overcast  
Wind Chill: 75°   Ceiling: 1100
Heat Index: 75°   Visibility: 10mi
Dew Point: 72°   Wind: 9mph
Humidity: 90%   Direction: 180°S
Pressure: 29.91"   Gusts: NA
Location:  28.4982°N, 82.633°W
Report Text: KBKV 240653Z AUTO 18008KT 10SM BKN011 BKN015 OVC023 24/22 A2991 RMK AO2 SLP127 T02390222
Loading
Personal Weather Stations






























Interactive Weather Map New forecast layout! Learn more

10-Day Weather Forecast

Advertisements
Track Severe Weather on mobile